Charlotte, NC (28218)

11:53 AM EST on March 04, 2015 (GMT -0500)
Midtown | Change Station
CLOSE
Current Station
Personal Weather Station
Location: Charlotte, NC
Elevation: 650 ft
Nearby Weather Stations
Active Advisory: Special Statement

Elev 650 ft 35.21 °N, 80.84 °W | Updated 35 seconds ago

Overcast
Overcast
61.4 °F
Feels Like 61.4 °F
N
8.0
Wind Variable Wind from SSE
Gusts 14.0 mph

Today
High -- | Low -- °F
--% Chance of Precip.
Yesterday
High -- | Low -- °F
Precip. -- in
6:49 AM 6:21 PM
Waxing Gibbous, 99% visible
Pressure 30.01 in
Visibility 10.0 miles
Clouds Mostly Cloudy 500 ft
Overcast 900 ft
Dew Point 58 °F
Humidity 88%
Rainfall 0.00 in
Snow Depth Not available.
UV 5.9 out of 12
Pollen 7.70 out of 12
Air Quality Not available.
Flu Activity Not available.
SPECI KCLT 041622Z 21014G21KT 10SM BKN005 OVC009 13/12 A3001 RMK AO2 DZE1554 P0000

More Conditions Fewer Conditions

Pressure 30.01 in
Visibility 10.0 miles
Clouds Mostly Cloudy 500 ft
Overcast 900 ft
Dew Point 58 °F
Humidity 88%
Rainfall 0.00 in
Snow Depth Not available.
UV 5.9 out of 12
Pollen 7.70 out of 12
Air Quality Not available.
Flu Activity Not available.
SPECI KCLT 041622Z 21014G21KT 10SM BKN005 OVC009 13/12 A3001 RMK AO2 DZE1554 P0000

More Conditions Fewer Conditions

10-Day Weather Forecast

Almanac

Astronomy

Mar. 04, 2015 Rise Set
Actual Time
Civil Twilight
Nautical Twilight
Astronomical Twilight
Moon
Length of Visible Light
Length of Day
Tomorrow will be .
, % of the Moon is Illuminated

Today's Extremes

State Highs State Lows

Community

WunderPhotos

Upload Photos

1,802,503 photos uploaded!

WunderBlogs® & News

Nearby

Air Quality

  Air Quality AQ Index Pollutant
Not available.

Snow Depth

Station Depth Elevation

Earthquake Activity

City Distance Mag. Time & Date
Minimum magnitude displayed is 2.5.

Coastal Water Temperatures

Place Temperature

Nearby Weather Stations

Special Statement
Statement as of 10:02 AM EST on March 04, 2015

Visibilities are only slowly improving this morning across
upstate South Carolina... portions of northeast Georgia and the
Charlotte Metro area. However... increasing southwest winds will
serve to mix out most of the fog by midday. Until then... be alert
for areas of dense fog with reduced visibilities.